Time;durP1;ratioP1;P1;durP2;ratioP2;P2;SDS_P1;SDS_P2;PMS_P1;PMS_P2;Temp;Humidity;BMP_temperature;BMP_pressure;BME280_temperature;BME280_humidity;BME280_pressure;Samples;Min_cycle;Max_cycle;Signal;HPM_P1;HPM_P2
2024/04/05 00:02:11;;;;;;;15.15;3.05;;;13.50;99.90;;;;;;6220311;28;20058;-85
2024/04/05 00:05:12;;;;;;;14.30;3.28;;;13.50;99.90;;;;;;6203772;28;20088;-86
2024/04/05 00:08:13;;;;;;;15.45;3.47;;;13.50;99.90;;;;;;6203642;28;20064;-85
2024/04/05 00:11:14;;;;;;;15.30;3.25;;;13.50;99.90;;;;;;6220011;28;20589;-86
2024/04/05 00:14:14;;;;;;;10.50;2.88;;;13.60;99.90;;;;;;6219036;28;20062;-86
2024/04/05 00:17:15;;;;;;;14.02;3.22;;;13.60;99.90;;;;;;6203424;28;20101;-84
2024/04/05 00:20:16;;;;;;;17.55;3.25;;;13.60;99.90;;;;;;6203488;28;20054;-84
2024/04/05 00:23:17;;;;;;;18.60;3.40;;;13.50;99.90;;;;;;6203404;28;20520;-85
2024/04/05 00:26:18;;;;;;;13.75;2.90;;;13.60;99.90;;;;;;6199289;28;20061;-85
2024/04/05 00:29:18;;;;;;;15.23;3.08;;;13.60;99.90;;;;;;6184567;28;20136;-85
2024/04/05 00:32:19;;;;;;;13.98;3.40;;;13.60;99.90;;;;;;6202862;28;20136;-87
2024/04/05 00:35:20;;;;;;;15.10;3.03;;;13.60;99.90;;;;;;6203230;28;20062;-86
2024/04/05 00:38:21;;;;;;;15.82;3.33;;;13.70;99.90;;;;;;6219736;28;20057;-86
2024/04/05 00:41:22;;;;;;;15.38;3.30;;;13.60;99.90;;;;;;6206023;28;20078;-85
2024/04/05 00:44:23;;;;;;;18.35;3.90;;;13.60;99.90;;;;;;6203358;28;20050;-86
2024/04/05 00:47:24;;;;;;;16.08;3.10;;;13.60;99.90;;;;;;6222909;28;20061;-86
2024/04/05 00:50:25;;;;;;;14.98;3.30;;;13.60;99.90;;;;;;6209620;28;20064;-86
2024/04/05 00:53:25;;;;;;;14.05;2.83;;;13.60;99.90;;;;;;6207623;28;20549;-86
2024/04/05 00:56:26;;;;;;;19.30;3.10;;;13.60;99.90;;;;;;6206863;28;20093;-87
2024/04/05 00:59:27;;;;;;;12.77;2.88;;;13.60;99.90;;;;;;6206644;28;20065;-86
2024/04/05 01:02:28;;;;;;;16.15;3.05;;;13.60;99.90;;;;;;6205100;28;20591;-87
2024/04/05 01:05:29;;;;;;;15.82;3.63;;;13.60;99.90;;;;;;6205267;28;20058;-87
2024/04/05 01:08:29;;;;;;;21.13;4.03;;;13.60;99.90;;;;;;6206030;28;20066;-89
2024/04/05 01:11:30;;;;;;;13.38;3.33;;;13.60;99.90;;;;;;6207962;28;20117;-89
2024/04/05 01:14:31;;;;;;;13.75;3.10;;;13.60;99.90;;;;;;6187541;28;20749;-87
2024/04/05 01:17:32;;;;;;;15.52;3.20;;;13.60;99.90;;;;;;6205532;28;20050;-88
2024/04/05 01:20:32;;;;;;;19.67;4.15;;;13.70;99.90;;;;;;6206238;28;20062;-87
2024/04/05 01:23:33;;;;;;;17.98;3.50;;;13.60;99.90;;;;;;6209231;28;20053;-87
2024/04/05 01:26:34;;;;;;;16.65;3.40;;;13.60;99.90;;;;;;6215061;28;20072;-87
2024/04/05 01:29:34;;;;;;;21.30;4.25;;;13.50;99.90;;;;;;6197806;28;20592;-86
2024/04/05 01:32:35;;;;;;;18.67;3.80;;;13.50;99.90;;;;;;6215902;28;20058;-87
2024/04/05 01:35:36;;;;;;;18.92;3.25;;;13.40;99.90;;;;;;6216806;28;20050;-88
2024/04/05 01:38:36;;;;;;;20.40;4.07;;;13.40;99.90;;;;;;6215736;28;20050;-87
2024/04/05 01:41:37;;;;;;;15.50;3.63;;;13.40;99.90;;;;;;6217196;28;20080;-87
2024/04/05 01:44:38;;;;;;;19.73;4.05;;;13.40;99.90;;;;;;6200427;28;20073;-87
2024/04/05 01:47:39;;;;;;;20.08;4.00;;;13.30;99.90;;;;;;6235798;28;20057;-88
2024/04/05 01:50:39;;;;;;;18.33;3.88;;;13.20;99.90;;;;;;6220385;28;20070;-87
2024/04/05 01:53:40;;;;;;;16.98;3.22;;;13.20;99.90;;;;;;6210103;28;20057;-87
2024/04/05 01:56:41;;;;;;;16.35;3.45;;;13.30;99.90;;;;;;6214183;28;20566;-88
2024/04/05 01:59:41;;;;;;;15.75;3.85;;;13.30;99.90;;;;;;6193135;28;20061;-88
2024/04/05 02:02:42;;;;;;;14.18;3.55;;;13.30;99.90;;;;;;6210771;28;20088;-87
2024/04/05 02:05:43;;;;;;;19.60;3.40;;;13.30;99.90;;;;;;6204477;28;20054;-87
2024/04/05 02:08:44;;;;;;;15.95;3.03;;;13.30;99.90;;;;;;6209200;28;20058;-87
2024/04/05 02:11:44;;;;;;;14.45;2.92;;;13.30;99.90;;;;;;6208554;28;20057;-86
2024/04/05 02:14:45;;;;;;;16.88;3.80;;;13.20;99.90;;;;;;5327865;22;21064;-86
2024/04/05 02:17:46;;;;;;;18.73;3.55;;;13.20;99.90;;;;;;6229072;28;20068;-86
2024/04/05 02:20:47;;;;;;;17.40;3.50;;;13.20;99.90;;;;;;6230478;28;20055;-86
2024/04/05 02:23:48;;;;;;;16.98;3.80;;;13.20;99.90;;;;;;6228178;28;20042;-86
2024/04/05 02:26:50;;;;;;;16.80;3.33;;;13.20;99.90;;;;;;6230157;28;20061;-86
2024/04/05 02:29:51;;;;;;;18.55;3.55;;;13.10;99.90;;;;;;6210480;28;20053;-86
2024/04/05 02:32:51;;;;;;;16.33;3.22;;;13.10;99.90;;;;;;6229646;28;20057;-85
2024/04/05 02:35:52;;;;;;;20.20;4.00;;;13.00;99.90;;;;;;6229963;28;20073;-86
2024/04/05 02:38:53;;;;;;;18.60;3.58;;;13.00;99.90;;;;;;6229625;28;20318;-86
2024/04/05 02:41:53;;;;;;;17.48;4.00;;;12.90;99.90;;;;;;6229861;28;20057;-86
2024/04/05 02:44:54;;;;;;;17.35;3.92;;;12.90;99.90;;;;;;6210756;28;20072;-87
2024/04/05 02:47:55;;;;;;;16.92;3.80;;;12.80;99.90;;;;;;6229635;28;20061;-86
2024/04/05 02:50:55;;;;;;;20.73;3.97;;;12.80;99.90;;;;;;6229614;28;20053;-86
2024/04/05 02:53:56;;;;;;;22.15;3.55;;;12.80;99.90;;;;;;6229466;28;20053;-88
2024/04/05 02:56:57;;;;;;;16.48;3.47;;;12.70;99.90;;;;;;6229639;28;20053;-87
2024/04/05 02:59:57;;;;;;;17.05;3.63;;;12.70;99.90;;;;;;6211064;28;20096;-87
2024/04/05 03:02:58;;;;;;;16.35;3.90;;;12.70;99.90;;;;;;6246295;28;20416;-87
2024/04/05 03:05:59;;;;;;;19.05;3.97;;;12.70;99.90;;;;;;6229502;28;20500;-86
2024/04/05 03:08:59;;;;;;;18.67;3.45;;;12.70;99.90;;;;;;6229409;28;20053;-87
2024/04/05 03:12:00;;;;;;;15.95;3.50;;;12.70;99.90;;;;;;6229687;28;20057;-87
2024/04/05 03:15:01;;;;;;;13.88;3.50;;;12.70;99.90;;;;;;6219391;28;20085;-87
2024/04/05 03:18:05;;;;;;;14.27;3.38;;;12.70;99.90;;;;;;6228846;28;20067;-88
2024/04/05 03:21:05;;;;;;;19.10;3.72;;;12.70;99.90;;;;;;6228931;28;20519;-88
2024/04/05 03:24:06;;;;;;;15.60;3.13;;;12.70;99.90;;;;;;6244081;28;20132;-87
2024/04/05 03:27:07;;;;;;;16.38;3.50;;;12.70;99.90;;;;;;6229299;28;20496;-86
2024/04/05 03:30:07;;;;;;;21.55;4.05;;;12.70;99.90;;;;;;6240069;28;20095;-88
2024/04/05 03:33:08;;;;;;;17.60;3.40;;;12.70;99.90;;;;;;6228720;28;20475;-87
2024/04/05 03:36:09;;;;;;;15.55;3.30;;;12.60;99.90;;;;;;6229106;28;20398;-88
2024/04/05 03:39:10;;;;;;;21.08;4.00;;;12.60;99.90;;;;;;6229455;28;20064;-87
2024/04/05 03:42:11;;;;;;;17.02;3.65;;;12.60;99.90;;;;;;6228600;28;20072;-88
2024/04/05 03:45:11;;;;;;;19.10;3.35;;;12.50;99.90;;;;;;6226966;22;20062;-84
2024/04/05 03:48:12;;;;;;;14.98;3.25;;;12.50;99.90;;;;;;6196597;28;20058;-84
2024/04/05 03:51:13;;;;;;;14.00;3.28;;;12.50;99.90;;;;;;6220089;28;20505;-83
2024/04/05 03:54:13;;;;;;;20.25;3.88;;;12.60;99.90;;;;;;6196307;28;20062;-85
2024/04/05 03:57:14;;;;;;;17.10;3.50;;;12.60;99.90;;;;;;6219578;28;20124;-84
2024/04/05 04:00:15;;;;;;;13.93;3.47;;;12.60;99.90;;;;;;6198549;28;20512;-84
2024/04/05 04:03:15;;;;;;;18.10;4.10;;;12.60;99.90;;;;;;6220925;28;20065;-84
2024/04/05 04:06:16;;;;;;;16.73;3.58;;;12.60;99.90;;;;;;6208387;28;20136;-82
2024/04/05 04:09:18;;;;;;;19.77;4.25;;;12.60;99.90;;;;;;6221453;28;20539;-82
2024/04/05 04:12:19;;;;;;;12.15;2.85;;;12.60;99.90;;;;;;6196478;28;20054;-83
2024/04/05 04:15:20;;;;;;;14.77;3.22;;;12.60;99.90;;;;;;6209909;28;20092;-83
2024/04/05 04:18:21;;;;;;;15.70;3.35;;;12.60;99.90;;;;;;6205826;28;20096;-83
2024/04/05 04:21:25;;;;;;;14.25;3.10;;;12.60;99.90;;;;;;6206619;28;20054;-83
2024/04/05 04:24:25;;;;;;;17.50;3.58;;;12.60;99.90;;;;;;6205536;28;20060;-83
2024/04/05 04:27:26;;;;;;;14.85;3.03;;;12.60;99.90;;;;;;6205058;28;20057;-84
2024/04/05 04:30:29;;;;;;;17.08;3.85;;;12.60;99.90;;;;;;6198395;28;20655;-83
2024/04/05 04:33:30;;;;;;;15.60;3.25;;;12.60;99.90;;;;;;6205211;28;20397;-85
2024/04/05 04:36:30;;;;;;;16.98;3.30;;;12.60;99.90;;;;;;6205112;28;20057;-86
2024/04/05 04:39:31;;;;;;;17.05;3.75;;;12.60;99.90;;;;;;6221377;28;20058;-85
2024/04/05 04:42:32;;;;;;;12.40;2.92;;;12.70;99.90;;;;;;6182927;28;20058;-83
2024/04/05 04:45:33;;;;;;;14.57;3.10;;;12.70;99.90;;;;;;6196588;28;20069;-81
2024/04/05 04:48:33;;;;;;;12.65;2.80;;;12.80;99.90;;;;;;6219209;28;20508;-85
2024/04/05 04:51:34;;;;;;;14.90;3.22;;;12.80;99.90;;;;;;6196273;28;20180;-83
2024/04/05 04:54:35;;;;;;;15.20;2.97;;;12.90;99.90;;;;;;6217706;28;20076;-81
2024/04/05 04:57:35;;;;;;;10.35;3.10;;;12.90;99.90;;;;;;6195202;28;20521;-81
2024/04/05 05:00:36;;;;;;;10.35;2.80;;;13.00;99.90;;;;;;6213632;28;20069;-82
2024/04/05 05:03:36;;;;;;;14.45;3.42;;;13.10;99.90;;;;;;6195368;28;20054;-83
2024/04/05 05:06:37;;;;;;;10.30;2.67;;;13.00;99.90;;;;;;6219785;28;20057;-83
2024/04/05 05:09:38;;;;;;;14.65;3.65;;;13.00;99.90;;;;;;6195365;28;20064;-83
2024/04/05 05:12:38;;;;;;;14.45;3.10;;;13.00;99.90;;;;;;6202262;28;20072;-82
2024/04/05 05:15:39;;;;;;;13.88;3.00;;;13.10;99.90;;;;;;6218613;28;20054;-82
2024/04/05 05:18:40;;;;;;;16.33;3.10;;;13.00;99.90;;;;;;6195017;28;20116;-84
2024/04/05 05:21:41;;;;;;;13.43;3.13;;;13.00;99.90;;;;;;6219553;28;20105;-84
2024/04/05 05:24:42;;;;;;;10.02;2.80;;;12.90;99.90;;;;;;6203781;28;20735;-81
2024/04/05 05:27:42;;;;;;;14.68;3.42;;;12.90;99.90;;;;;;6204392;28;20092;-83
2024/04/05 05:30:43;;;;;;;10.95;3.30;;;12.90;99.90;;;;;;6182496;28;20132;-83
2024/04/05 05:33:44;;;;;;;12.38;3.35;;;13.00;99.90;;;;;;6219035;28;20781;-81
2024/04/05 05:36:45;;;;;;;11.40;3.00;;;13.00;99.90;;;;;;6202880;28;20100;-83
2024/04/05 05:39:45;;;;;;;9.95;2.83;;;13.00;99.90;;;;;;6197317;28;20722;-84
2024/04/05 05:42:46;;;;;;;13.27;3.42;;;12.90;99.90;;;;;;6220203;28;20065;-81
2024/04/05 05:45:47;;;;;;;13.82;3.10;;;12.80;99.90;;;;;;6179351;28;20061;-83
2024/04/05 05:48:47;;;;;;;14.93;3.67;;;12.80;99.90;;;;;;6219441;28;20054;-83
2024/04/05 05:51:48;;;;;;;14.38;3.38;;;12.80;99.90;;;;;;6180817;28;20445;-83
2024/04/05 05:54:49;;;;;;;12.38;3.15;;;12.80;99.90;;;;;;6203303;28;20077;-83
2024/04/05 05:57:50;;;;;;;12.10;3.00;;;12.80;99.90;;;;;;6203485;28;20097;-82
2024/04/05 06:00:51;;;;;;;12.38;2.97;;;12.80;99.90;;;;;;6190354;28;20129;-84
2024/04/05 06:03:52;;;;;;;11.63;2.90;;;12.80;99.90;;;;;;6219158;28;20163;-83
2024/04/05 06:06:53;;;;;;;11.20;2.95;;;12.70;99.90;;;;;;6195298;28;20065;-83
2024/04/05 06:09:53;;;;;;;12.95;2.67;;;12.70;99.90;;;;;;6220952;28;20062;-85
2024/04/05 06:12:54;;;;;;;13.85;3.22;;;12.70;99.90;;;;;;6205955;28;20064;-84
2024/04/05 06:15:55;;;;;;;11.07;2.75;;;12.70;99.90;;;;;;6182051;28;20054;-84
2024/04/05 06:18:55;;;;;;;11.85;2.45;;;12.60;99.90;;;;;;6204066;28;20115;-84
2024/04/05 06:21:56;;;;;;;9.13;2.65;;;12.70;99.90;;;;;;6221349;28;20052;-84
2024/04/05 06:24:57;;;;;;;8.75;2.53;;;12.60;99.90;;;;;;6203269;28;20504;-84
2024/04/05 06:27:57;;;;;;;9.55;2.40;;;12.70;99.90;;;;;;6196793;28;20062;-81
2024/04/05 06:30:58;;;;;;;8.48;2.20;;;12.60;99.90;;;;;;6202694;28;20050;-83
2024/04/05 06:33:59;;;;;;;5.97;1.92;;;12.60;99.90;;;;;;6195669;28;20058;-83
2024/04/05 06:37:00;;;;;;;5.20;1.80;;;12.60;99.90;;;;;;6218199;28;20058;-82
2024/04/05 06:40:01;;;;;;;8.05;2.05;;;12.60;99.90;;;;;;6202930;28;20058;-82
2024/04/05 06:43:01;;;;;;;10.80;2.20;;;12.60;99.90;;;;;;6195122;28;20670;-83
2024/04/05 06:46:07;;;;;;;9.57;2.20;;;12.60;99.90;;;;;;6214110;28;20070;-82
2024/04/05 06:49:08;;;;;;;9.63;1.85;;;12.50;99.90;;;;;;6179119;28;20046;-85
2024/04/05 06:52:08;;;;;;;7.18;1.60;;;12.50;99.90;;;;;;6203725;28;20058;-84
2024/04/05 06:55:09;;;;;;;5.45;1.60;;;12.50;99.90;;;;;;6199075;28;20058;-84
2024/04/05 06:58:11;;;;;;;5.15;1.48;;;12.50;99.90;;;;;;6220859;28;20064;-84
2024/04/05 07:01:12;;;;;;;6.25;1.52;;;12.60;99.90;;;;;;6195310;28;20064;-83
2024/04/05 07:04:13;;;;;;;7.85;1.40;;;12.60;99.90;;;;;;6208121;28;20058;-83
2024/04/05 07:07:14;;;;;;;5.47;1.45;;;12.60;99.90;;;;;;6226072;28;20497;-84
2024/04/05 07:10:14;;;;;;;7.57;1.50;;;12.60;99.90;;;;;;6201048;28;20410;-84
2024/04/05 07:13:15;;;;;;;4.90;1.30;;;12.50;99.90;;;;;;6203221;28;20105;-84
2024/04/05 07:16:23;;;;;;;6.50;1.63;;;12.40;99.90;;;;;;6223695;28;20054;-84
2024/04/05 07:19:23;;;;;;;8.13;1.88;;;12.50;99.90;;;;;;6206305;28;20100;-84
2024/04/05 07:22:25;;;;;;;6.78;1.40;;;12.50;99.90;;;;;;6208284;28;20172;-83
2024/04/05 07:25:26;;;;;;;8.32;1.83;;;12.50;99.90;;;;;;6213937;28;20050;-84
2024/04/05 07:28:27;;;;;;;5.30;1.50;;;12.50;99.90;;;;;;6202331;28;20180;-82
2024/04/05 07:31:28;;;;;;;4.90;1.42;;;12.50;99.90;;;;;;6181952;28;20149;-84
2024/04/05 07:34:29;;;;;;;7.03;1.48;;;12.50;99.90;;;;;;6206052;28;20061;-83
2024/04/05 07:37:30;;;;;;;8.32;1.73;;;12.50;99.90;;;;;;6197394;28;20065;-84
2024/04/05 07:40:34;;;;;;;6.88;1.80;;;12.60;99.90;;;;;;6220777;28;20058;-84
2024/04/05 07:43:35;;;;;;;7.30;1.75;;;12.70;99.90;;;;;;6206377;28;20054;-83
2024/04/05 07:46:36;;;;;;;9.73;2.22;;;12.80;99.90;;;;;;6180224;28;20521;-83
2024/04/05 07:49:36;;;;;;;12.60;1.95;;;12.90;99.90;;;;;;6203837;28;20587;-85
2024/04/05 07:52:37;;;;;;;10.10;2.13;;;13.20;99.90;;;;;;6197784;28;20054;-83
2024/04/05 07:55:38;;;;;;;12.48;2.20;;;13.20;99.90;;;;;;6204555;28;20136;-83
2024/04/05 07:58:39;;;;;;;11.38;2.40;;;13.30;99.90;;;;;;6202663;28;20539;-84
2024/04/05 08:01:39;;;;;;;13.73;2.17;;;13.30;99.90;;;;;;6212431;28;20053;-81
2024/04/05 08:04:40;;;;;;;10.13;2.20;;;13.30;99.90;;;;;;6207268;28;20125;-83
2024/04/05 08:07:42;;;;;;;13.80;2.40;;;13.30;99.90;;;;;;6205780;28;20111;-83
2024/04/05 08:10:42;;;;;;;11.90;2.42;;;13.30;99.90;;;;;;6208188;28;20121;-84
2024/04/05 08:13:43;;;;;;;21.05;3.47;;;13.40;99.90;;;;;;6186455;28;20555;-84
2024/04/05 08:16:44;;;;;;;14.68;2.83;;;13.40;99.90;;;;;;6187728;28;20065;-83
2024/04/05 08:19:44;;;;;;;12.30;2.47;;;13.50;99.90;;;;;;6221190;28;20065;-83
2024/04/05 08:22:45;;;;;;;16.80;3.08;;;13.50;99.90;;;;;;6228719;28;20105;-85
2024/04/05 08:25:47;;;;;;;13.77;2.42;;;13.50;99.90;;;;;;6213608;28;20727;-87
2024/04/05 08:28:48;;;;;;;15.63;2.92;;;13.50;99.90;;;;;;6204319;28;20057;-84
2024/04/05 08:31:49;;;;;;;15.73;2.70;;;13.70;99.90;;;;;;6181853;28;20065;-82
2024/04/05 08:34:50;;;;;;;13.35;2.47;;;13.60;99.90;;;;;;6203842;28;20053;-85
2024/04/05 08:37:50;;;;;;;17.27;3.10;;;13.60;99.90;;;;;;6224912;28;20054;-84
2024/04/05 08:40:52;;;;;;;13.73;3.20;;;13.60;99.90;;;;;;6212846;28;20064;-85
2024/04/05 08:43:53;;;;;;;16.23;3.38;;;13.70;99.90;;;;;;6197182;28;20050;-88
2024/04/05 08:46:54;;;;;;;14.57;3.30;;;13.80;99.90;;;;;;6204549;28;20560;-84
2024/04/05 08:49:55;;;;;;;14.57;2.92;;;14.00;99.90;;;;;;6249029;28;20089;-88
2024/04/05 08:52:56;;;;;;;17.15;3.53;;;14.10;99.90;;;;;;6206735;28;20100;-84
2024/04/05 08:55:57;;;;;;;15.18;2.92;;;14.20;99.90;;;;;;6197763;28;20541;-84
2024/04/05 08:58:58;;;;;;;14.25;3.20;;;14.40;99.90;;;;;;6176987;28;20105;-81
2024/04/05 09:01:58;;;;;;;15.60;2.67;;;14.40;99.90;;;;;;6235636;28;20058;-85
2024/04/05 09:04:59;;;;;;;13.50;2.58;;;14.40;99.90;;;;;;6223687;28;20058;-83
2024/04/05 09:07:59;;;;;;;17.63;3.03;;;14.60;99.90;;;;;;6205722;28;20050;-82
2024/04/05 09:11:00;;;;;;;14.48;2.75;;;14.60;99.90;;;;;;6222463;28;20112;-82
2024/04/05 09:14:01;;;;;;;15.48;2.63;;;14.90;99.90;;;;;;6184216;28;20054;-82
2024/04/05 09:17:03;;;;;;;14.45;2.83;;;14.70;99.90;;;;;;6222068;28;20097;-82
2024/04/05 09:20:16;;;;;;;16.13;3.35;;;14.70;99.90;;;;;;6198329;28;20074;-83
2024/04/05 09:23:17;;;;;;;17.52;2.38;;;15.10;99.90;;;;;;6197854;28;20062;-82
2024/04/05 09:26:18;;;;;;;15.98;2.42;;;15.40;99.90;;;;;;6180900;28;20132;-82
2024/04/05 09:29:19;;;;;;;13.25;2.60;;;15.30;99.80;;;;;;6203843;28;20054;-84
2024/04/05 09:32:20;;;;;;;15.07;3.08;;;15.50;99.90;;;;;;6207437;28;20060;-84
2024/04/05 09:35:21;;;;;;;12.77;2.45;;;15.90;95.20;;;;;;6208175;28;20382;-83
2024/04/05 09:38:21;;;;;;;12.05;2.70;;;16.10;89.30;;;;;;6198130;28;20050;-83
2024/04/05 09:41:22;;;;;;;10.45;2.20;;;16.80;88.10;;;;;;6205143;28;20187;-83
2024/04/05 09:44:23;;;;;;;14.48;2.47;;;17.70;72.80;;;;;;6206550;28;20058;-90
2024/04/05 09:47:25;;;;;;;9.48;2.17;;;18.40;47.60;;;;;;6204668;28;20050;-85
2024/04/05 09:50:26;;;;;;;14.77;2.65;;;18.60;7.10;;;;;;6222159;28;20058;-84
2024/04/05 09:53:28;;;;;;;13.18;2.38;;;18.30;25.90;;;;;;6206903;28;20064;-83
2024/04/05 09:56:29;;;;;;;11.43;2.10;;;17.90;22.30;;;;;;6202971;28;20052;-83
2024/04/05 09:59:29;;;;;;;12.70;2.30;;;18.50;33.50;;;;;;6195287;28;20054;-84
2024/04/05 10:02:30;;;;;;;13.40;2.20;;;19.20;4.30;;;;;;6220102;28;20493;-84
2024/04/05 10:05:34;;;;;;;12.63;2.42;;;18.60;1.00;;;;;;6204694;28;20061;-87
2024/04/05 10:08:35;;;;;;;10.20;2.60;;;18.80;1.00;;;;;;6204265;28;20402;-86
2024/04/05 10:11:36;;;;;;;12.65;2.50;;;18.90;1.00;;;;;;6203998;28;20058;-85
2024/04/05 10:14:37;;;;;;;11.02;2.50;;;18.10;1.00;;;;;;6191824;28;20065;-84
2024/04/05 10:17:38;;;;;;;12.38;2.40;;;18.30;1.00;;;;;;6206608;28;20061;-84
2024/04/05 10:20:39;;;;;;;12.25;2.60;;;18.70;1.00;;;;;;6208079;28;20054;-86
2024/04/05 10:23:39;;;;;;;14.15;2.55;;;19.60;1.00;;;;;;6202159;28;20046;-86
2024/04/05 10:26:40;;;;;;;13.73;2.40;;;20.20;1.00;;;;;;6181265;28;20058;-86
2024/04/05 10:29:41;;;;;;;11.10;2.83;;;20.00;1.00;;;;;;6182817;28;20554;-85
2024/04/05 10:32:42;;;;;;;14.85;2.95;;;20.10;1.00;;;;;;6222436;28;20145;-86
2024/04/05 10:35:43;;;;;;;10.88;3.00;;;19.80;1.00;;;;;;6208096;28;20797;-87
2024/04/05 10:38:44;;;;;;;8.38;2.88;;;19.50;1.00;;;;;;6200295;28;20047;-83
2024/04/05 10:41:45;;;;;;;12.68;2.63;;;19.50;1.00;;;;;;6211046;28;20623;-91
2024/04/05 10:44:46;;;;;;;18.45;3.58;;;18.80;1.00;;;;;;6212802;28;20529;-86
2024/04/05 10:47:47;;;;;;;16.63;3.55;;;18.40;1.00;;;;;;6200525;28;20053;-85
2024/04/05 10:50:49;;;;;;;13.73;2.80;;;19.20;1.00;;;;;;6209017;28;20050;-88
2024/04/05 10:53:50;;;;;;;11.82;2.80;;;18.90;1.00;;;;;;6211526;28;20064;-91
2024/04/05 10:56:51;;;;;;;14.35;2.58;;;18.70;1.00;;;;;;6210721;28;20132;-90
2024/04/05 10:59:51;;;;;;;15.13;3.05;;;18.90;1.00;;;;;;6199433;28;20511;-90
2024/04/05 11:02:52;;;;;;;9.48;2.75;;;19.50;1.00;;;;;;6201945;28;20073;-90
2024/04/05 11:05:53;;;;;;;16.02;2.75;;;19.90;1.00;;;;;;6206900;28;20651;-87
2024/04/05 11:08:55;;;;;;;15.38;2.53;;;20.00;1.00;;;;;;6224693;28;20093;-87
2024/04/05 11:11:56;;;;;;;12.75;2.42;;;19.10;1.00;;;;;;6208071;28;20061;-86
2024/04/05 11:14:56;;;;;;;9.60;2.45;;;19.10;1.00;;;;;;6205112;28;20406;-86
2024/04/05 11:17:57;;;;;;;16.10;3.78;;;19.00;1.00;;;;;;6207481;28;20072;-85
2024/04/05 11:20:58;;;;;;;14.75;3.08;;;19.70;1.00;;;;;;6198602;28;20058;-83
2024/04/05 11:23:58;;;;;;;12.38;2.58;;;20.00;1.00;;;;;;6219140;28;20100;-81
2024/04/05 11:26:59;;;;;;;10.98;1.92;;;20.40;1.00;;;;;;6236312;28;20115;-85
2024/04/05 11:30:00;;;;;;;14.18;2.42;;;19.60;1.00;;;;;;6217515;28;20050;-83
2024/04/05 11:33:00;;;;;;;13.63;2.67;;;19.90;1.00;;;;;;6219223;28;20144;-88
2024/04/05 11:36:01;;;;;;;13.77;2.60;;;20.10;1.00;;;;;;6210258;28;20054;-84
2024/04/05 11:39:02;;;;;;;12.48;2.30;;;19.90;1.00;;;;;;6184880;28;20050;-86
2024/04/05 11:42:03;;;;;;;11.60;2.70;;;19.80;1.00;;;;;;6183106;28;20054;-88
2024/04/05 11:45:05;;;;;;;15.70;3.40;;;19.00;1.00;;;;;;6207569;28;20058;-82
2024/04/05 11:48:07;;;;;;;14.77;3.33;;;18.90;1.00;;;;;;6222330;28;20068;-83
2024/04/05 11:51:07;;;;;;;16.17;3.83;;;18.90;1.00;;;;;;6207021;28;20062;-83
2024/04/05 11:54:08;;;;;;;17.30;2.90;;;19.20;1.00;;;;;;6222296;28;20408;-84
2024/04/05 11:57:13;;;;;;;17.02;3.92;;;19.60;1.00;;;;;;6202408;28;20069;-84
2024/04/05 12:00:13;;;;;;;13.55;2.88;;;19.60;1.00;;;;;;6185502;28;20521;-85
2024/04/05 12:03:14;;;;;;;14.85;2.83;;;20.00;1.00;;;;;;6183861;28;20046;-88
2024/04/05 12:06:15;;;;;;;9.85;2.35;;;20.50;1.00;;;;;;6198992;28;20084;-85
2024/04/05 12:09:19;;;;;;;12.38;2.85;;;21.40;1.00;;;;;;6196860;28;20081;-81
2024/04/05 12:12:20;;;;;;;15.55;2.63;;;21.50;1.00;;;;;;6195401;28;20058;-81
2024/04/05 12:15:21;;;;;;;14.93;2.75;;;21.30;1.00;;;;;;6173683;28;20060;-82
2024/04/05 12:18:21;;;;;;;15.52;3.00;;;21.90;1.00;;;;;;6194908;28;20050;-81
2024/04/05 12:21:22;;;;;;;13.95;3.05;;;21.50;1.00;;;;;;6194808;28;20058;-80
2024/04/05 12:24:23;;;;;;;13.75;2.83;;;21.00;1.00;;;;;;6216676;28;20163;-82
2024/04/05 12:27:24;;;;;;;15.27;2.97;;;20.80;1.00;;;;;;6194900;28;20058;-81
2024/04/05 12:30:25;;;;;;;10.45;2.72;;;20.20;1.00;;;;;;6209173;28;20054;-84
2024/04/05 12:33:25;;;;;;;13.00;2.85;;;19.90;1.00;;;;;;6204023;28;20488;-88
2024/04/05 12:36:26;;;;;;;10.85;2.30;;;20.50;1.00;;;;;;6204750;28;20763;-86
2024/04/05 12:39:29;;;;;;;17.05;3.22;;;20.20;1.00;;;;;;6197220;28;20482;-86
2024/04/05 12:42:30;;;;;;;12.93;2.45;;;20.30;1.00;;;;;;6220287;28;20062;-86
2024/04/05 12:45:31;;;;;;;14.65;3.05;;;20.40;1.00;;;;;;6202040;28;20510;-85
2024/04/05 12:48:31;;;;;;;14.10;2.67;;;21.30;1.00;;;;;;6203941;28;20061;-85
2024/04/05 12:51:32;;;;;;;7.75;2.05;;;21.10;1.00;;;;;;6204912;28;20069;-86
2024/04/05 12:54:33;;;;;;;11.13;2.72;;;20.70;1.00;;;;;;6196446;28;20130;-82
2024/04/05 12:57:35;;;;;;;11.55;2.58;;;21.00;1.00;;;;;;6202674;28;20050;-82
2024/04/05 13:00:38;;;;;;;14.73;2.42;;;20.80;1.00;;;;;;6205638;28;20120;-83
2024/04/05 13:03:38;;;;;;;12.85;2.80;;;21.10;1.00;;;;;;6206077;28;20049;-85
2024/04/05 13:06:40;;;;;;;9.98;2.13;;;21.20;1.00;;;;;;6198715;28;20421;-87
2024/04/05 13:09:42;;;;;;;12.20;2.35;;;21.30;1.00;;;;;;6222973;28;20046;-89
2024/04/05 13:12:43;;;;;;;12.82;2.53;;;21.10;1.00;;;;;;6222636;28;20060;-85
2024/04/05 13:15:44;;;;;;;11.55;2.22;;;21.10;1.00;;;;;;6203036;28;20491;-85
2024/04/05 13:18:45;;;;;;;11.20;2.28;;;20.80;1.00;;;;;;6195328;28;20054;-82
2024/04/05 13:21:45;;;;;;;11.40;2.22;;;20.60;1.00;;;;;;6202892;28;20668;-85
2024/04/05 13:24:46;;;;;;;9.38;1.98;;;20.70;1.00;;;;;;6228413;28;20136;-85
2024/04/05 13:27:47;;;;;;;11.43;2.72;;;21.00;1.00;;;;;;6219144;28;20112;-85
2024/04/05 13:30:48;;;;;;;14.73;2.90;;;20.50;1.00;;;;;;6202400;28;20152;-83
2024/04/05 13:33:49;;;;;;;12.65;3.05;;;20.10;1.00;;;;;;6202005;28;20179;-83
2024/04/05 13:36:50;;;;;;;12.15;3.00;;;20.00;1.00;;;;;;6201553;28;20076;-83
2024/04/05 13:39:51;;;;;;;12.43;2.85;;;20.30;1.00;;;;;;6202351;28;20057;-82
2024/04/05 13:42:52;;;;;;;11.20;2.72;;;20.30;1.00;;;;;;6194542;28;20069;-85
2024/04/05 13:45:53;;;;;;;12.10;2.47;;;19.80;1.00;;;;;;6200159;28;20069;-82
2024/04/05 13:48:54;;;;;;;11.27;2.95;;;20.00;1.00;;;;;;6194146;28;20073;-83
2024/04/05 13:51:55;;;;;;;14.45;2.75;;;20.50;1.00;;;;;;6218972;28;20057;-81
2024/04/05 13:54:56;;;;;;;13.02;2.40;;;20.80;1.00;;;;;;6202101;28;20072;-82
2024/04/05 13:57:56;;;;;;;9.88;2.42;;;20.80;1.00;;;;;;6194642;28;20486;-82
2024/04/05 14:00:57;;;;;;;11.35;2.40;;;20.80;1.00;;;;;;6182248;28;20149;-81
2024/04/05 14:03:58;;;;;;;14.15;2.50;;;21.20;1.00;;;;;;6220474;28;20054;-80
2024/04/05 14:06:58;;;;;;;19.50;2.67;;;21.20;1.00;;;;;;6221925;28;20422;-82
2024/04/05 14:09:59;;;;;;;14.40;2.65;;;21.10;1.00;;;;;;6198324;28;20050;-84
2024/04/05 14:13:00;;;;;;;11.02;2.72;;;21.20;1.00;;;;;;6198778;28;20096;-85
2024/04/05 14:16:00;;;;;;;10.65;2.50;;;21.30;1.00;;;;;;6181247;28;20097;-89
2024/04/05 14:19:02;;;;;;;16.88;3.17;;;20.50;1.00;;;;;;6221317;28;20502;-87
2024/04/05 14:22:03;;;;;;;18.23;3.35;;;20.10;1.00;;;;;;6197968;28;20077;-83
2024/04/05 14:25:05;;;;;;;15.15;3.13;;;20.20;1.00;;;;;;6220606;28;20686;-86
2024/04/05 14:28:05;;;;;;;18.13;3.38;;;20.80;1.00;;;;;;6200944;28;20080;-90
2024/04/05 14:31:06;;;;;;;13.60;3.40;;;19.90;1.00;;;;;;6212267;28;20062;-89
2024/04/05 14:34:07;;;;;;;16.88;3.15;;;19.40;1.00;;;;;;6184708;28;20084;-90
2024/04/05 14:37:08;;;;;;;14.70;3.45;;;19.10;1.00;;;;;;6212818;28;20054;-86
2024/04/05 14:40:08;;;;;;;15.15;3.25;;;18.90;1.00;;;;;;6207303;28;20054;-86
2024/04/05 14:43:09;;;;;;;20.85;3.65;;;18.90;1.00;;;;;;6209910;28;20062;-88
2024/04/05 14:46:10;;;;;;;12.13;3.10;;;18.50;1.00;;;;;;6212103;28;20062;-86
2024/04/05 14:49:10;;;;;;;15.48;3.22;;;18.70;1.00;;;;;;6227794;28;20386;-87
2024/04/05 14:52:11;;;;;;;14.90;3.45;;;18.80;1.00;;;;;;6186088;28;20085;-87
2024/04/05 14:55:12;;;;;;;16.00;3.55;;;18.90;1.00;;;;;;6200874;28;20097;-85
2024/04/05 14:58:13;;;;;;;16.75;3.88;;;18.70;1.00;;;;;;6219723;28;20053;-85
2024/04/05 15:01:14;;;;;;;15.30;3.10;;;18.60;1.00;;;;;;6165323;28;20418;-85
2024/04/05 15:04:15;;;;;;;26.60;3.65;;;18.60;1.00;;;;;;6197734;28;20058;-85
2024/04/05 15:07:16;;;;;;;14.43;3.03;;;18.60;1.00;;;;;;6213099;28;20513;-84
2024/04/05 15:10:16;;;;;;;15.30;3.50;;;18.50;1.00;;;;;;6204711;28;20058;-81
2024/04/05 15:13:17;;;;;;;13.60;3.20;;;18.70;1.00;;;;;;6198328;28;20862;-83
2024/04/05 15:16:18;;;;;;;12.82;3.08;;;18.60;1.00;;;;;;6202296;28;20097;-82
2024/04/05 15:19:19;;;;;;;16.00;2.78;;;18.70;1.00;;;;;;6195821;28;20532;-83
2024/04/05 15:22:19;;;;;;;16.38;3.30;;;18.70;1.00;;;;;;6210330;28;20148;-87
2024/04/05 15:25:20;;;;;;;13.75;2.90;;;19.00;1.00;;;;;;6221595;28;20061;-90
2024/04/05 15:28:21;;;;;;;14.15;3.20;;;19.00;1.00;;;;;;6203163;28;20144;-89
2024/04/05 15:31:22;;;;;;;13.55;2.92;;;18.90;1.00;;;;;;6162785;28;20490;-84
2024/04/05 15:34:28;;;;;;;17.17;3.90;;;18.60;1.00;;;;;;6204137;28;20580;-84